sensor_id;sensor_type;location;lat;lon;timestamp;pressure;altitude;pressure_sealevel;temperature;humidity
22241;BME280;11289;52.524;13.694;2023-04-30T00:01:58;101359.22;;;7.85;68.34
22241;BME280;11289;52.524;13.694;2023-04-30T00:04:24;101353.19;;;7.83;68.30
22241;BME280;11289;52.524;13.694;2023-04-30T00:06:50;101358.22;;;7.76;68.08
22241;BME280;11289;52.524;13.694;2023-04-30T00:09:16;101361.00;;;7.76;68.18
22241;BME280;11289;52.524;13.694;2023-04-30T00:11:42;101354.94;;;7.74;67.30
22241;BME280;11289;52.524;13.694;2023-04-30T00:14:08;101353.94;;;7.65;67.84
22241;BME280;11289;52.524;13.694;2023-04-30T00:16:34;101365.75;;;7.71;67.79
22241;BME280;11289;52.524;13.694;2023-04-30T00:19:00;101356.47;;;7.61;67.90
22241;BME280;11289;52.524;13.694;2023-04-30T00:21:26;101357.66;;;7.55;67.68
22241;BME280;11289;52.524;13.694;2023-04-30T00:23:52;101378.03;;;7.59;67.54
22241;BME280;11289;52.524;13.694;2023-04-30T00:26:18;101372.88;;;7.53;67.36
22241;BME280;11289;52.524;13.694;2023-04-30T00:28:44;101376.22;;;7.49;67.49
22241;BME280;11289;52.524;13.694;2023-04-30T00:31:10;101366.56;;;7.47;67.55
22241;BME280;11289;52.524;13.694;2023-04-30T00:33:36;101377.31;;;7.48;68.05
22241;BME280;11289;52.524;13.694;2023-04-30T00:36:02;101338.88;;;7.23;67.91
22241;BME280;11289;52.524;13.694;2023-04-30T00:38:28;101382.31;;;7.46;67.84
22241;BME280;11289;52.524;13.694;2023-04-30T00:40:54;101352.09;;;7.26;67.81
22241;BME280;11289;52.524;13.694;2023-04-30T00:43:20;101384.03;;;7.42;67.67
22241;BME280;11289;52.524;13.694;2023-04-30T00:45:46;101385.34;;;7.45;67.90
22241;BME280;11289;52.524;13.694;2023-04-30T00:48:12;101382.06;;;7.43;68.04
22241;BME280;11289;52.524;13.694;2023-04-30T00:50:38;101394.53;;;7.40;67.94
22241;BME280;11289;52.524;13.694;2023-04-30T00:53:05;101393.44;;;7.36;68.02
22241;BME280;11289;52.524;13.694;2023-04-30T00:55:31;101403.44;;;7.32;68.15
22241;BME280;11289;52.524;13.694;2023-04-30T00:57:58;101406.78;;;7.29;67.81
22241;BME280;11289;52.524;13.694;2023-04-30T01:00:26;101383.75;;;7.09;68.10
22241;BME280;11289;52.524;13.694;2023-04-30T01:02:52;101401.69;;;7.12;67.86
22241;BME280;11289;52.524;13.694;2023-04-30T01:05:18;101413.00;;;7.10;68.29
22241;BME280;11289;52.524;13.694;2023-04-30T01:07:44;101410.28;;;7.05;67.85
22241;BME280;11289;52.524;13.694;2023-04-30T01:10:12;101401.53;;;6.93;68.13
22241;BME280;11289;52.524;13.694;2023-04-30T01:12:47;101409.78;;;6.98;68.06
22241;BME280;11289;52.524;13.694;2023-04-30T01:18:08;101424.94;;;7.01;68.09
22241;BME280;11289;52.524;13.694;2023-04-30T01:20:43;101429.41;;;6.96;67.86
22241;BME280;11289;52.524;13.694;2023-04-30T01:26:10;101422.28;;;6.85;68.16
22241;BME280;11289;52.524;13.694;2023-04-30T01:28:38;101420.38;;;6.80;68.10
22241;BME280;11289;52.524;13.694;2023-04-30T01:31:16;101403.06;;;6.70;68.00
22241;BME280;11289;52.524;13.694;2023-04-30T01:33:43;101430.34;;;6.76;68.43
22241;BME280;11289;52.524;13.694;2023-04-30T01:36:31;101432.56;;;6.74;68.69
22241;BME280;11289;52.524;13.694;2023-04-30T01:39:13;101424.88;;;6.71;68.30
22241;BME280;11289;52.524;13.694;2023-04-30T01:47:03;101433.50;;;6.54;68.34
22241;BME280;11289;52.524;13.694;2023-04-30T01:49:54;101442.06;;;6.53;68.68
22241;BME280;11289;52.524;13.694;2023-04-30T01:52:49;101447.59;;;6.53;68.86
22241;BME280;11289;52.524;13.694;2023-04-30T01:56:04;101440.47;;;6.41;68.82
22241;BME280;11289;52.524;13.694;2023-04-30T01:58:12;101447.63;;;6.42;68.83
22241;BME280;11289;52.524;13.694;2023-04-30T02:00:40;101454.53;;;6.40;68.79
22241;BME280;11289;52.524;13.694;2023-04-30T02:03:06;101449.88;;;6.35;68.73
22241;BME280;11289;52.524;13.694;2023-04-30T02:05:32;101466.44;;;6.35;69.12
22241;BME280;11289;52.524;13.694;2023-04-30T02:07:58;101473.06;;;6.29;69.12
22241;BME280;11289;52.524;13.694;2023-04-30T02:10:25;101464.53;;;6.25;69.50
22241;BME280;11289;52.524;13.694;2023-04-30T02:12:52;101470.59;;;6.27;69.63
22241;BME280;11289;52.524;13.694;2023-04-30T02:15:18;101474.75;;;6.25;69.75
22241;BME280;11289;52.524;13.694;2023-04-30T02:17:44;101479.16;;;6.21;69.47
22241;BME280;11289;52.524;13.694;2023-04-30T02:20:10;101484.13;;;6.19;69.61
22241;BME280;11289;52.524;13.694;2023-04-30T02:22:36;101477.53;;;6.09;69.72
22241;BME280;11289;52.524;13.694;2023-04-30T02:25:02;101497.94;;;6.14;69.64
22241;BME280;11289;52.524;13.694;2023-04-30T02:27:30;101495.72;;;6.10;69.95
22241;BME280;11289;52.524;13.694;2023-04-30T02:29:56;101484.72;;;6.00;69.88
22241;BME280;11289;52.524;13.694;2023-04-30T02:32:22;101485.81;;;5.99;70.13
22241;BME280;11289;52.524;13.694;2023-04-30T02:34:48;101489.09;;;5.96;70.17
22241;BME280;11289;52.524;13.694;2023-04-30T02:37:14;101497.94;;;5.98;69.95
22241;BME280;11289;52.524;13.694;2023-04-30T02:39:40;101501.50;;;5.93;70.23
22241;BME280;11289;52.524;13.694;2023-04-30T02:42:07;101506.47;;;5.91;70.26
22241;BME280;11289;52.524;13.694;2023-04-30T02:44:33;101506.19;;;5.88;70.64
22241;BME280;11289;52.524;13.694;2023-04-30T02:46:59;101507.31;;;5.87;70.81
22241;BME280;11289;52.524;13.694;2023-04-30T02:49:26;101507.84;;;5.84;70.84
22241;BME280;11289;52.524;13.694;2023-04-30T02:51:52;101499.31;;;5.75;70.67
22241;BME280;11289;52.524;13.694;2023-04-30T02:54:18;101510.34;;;5.75;71.08
22241;BME280;11289;52.524;13.694;2023-04-30T02:56:45;101507.59;;;5.75;71.47
22241;BME280;11289;52.524;13.694;2023-04-30T02:59:12;101506.78;;;5.69;71.16
22241;BME280;11289;52.524;13.694;2023-04-30T03:01:38;101504.56;;;5.66;71.60
22241;BME280;11289;52.524;13.694;2023-04-30T03:04:04;101513.38;;;5.63;71.85
22241;BME280;11289;52.524;13.694;2023-04-30T03:06:31;101518.91;;;5.58;71.74
22241;BME280;11289;52.524;13.694;2023-04-30T03:08:57;101518.63;;;5.60;72.12
22241;BME280;11289;52.524;13.694;2023-04-30T03:11:24;101511.19;;;5.50;71.78
22241;BME280;11289;52.524;13.694;2023-04-30T03:13:50;101516.41;;;5.51;71.62
22241;BME280;11289;52.524;13.694;2023-04-30T03:16:19;101515.03;;;5.49;71.89
22241;BME280;11289;52.524;13.694;2023-04-30T03:18:46;101525.50;;;5.47;72.02
22241;BME280;11289;52.524;13.694;2023-04-30T03:21:12;101529.09;;;5.42;72.01
22241;BME280;11289;52.524;13.694;2023-04-30T03:23:38;101526.59;;;5.40;72.19
22241;BME280;11289;52.524;13.694;2023-04-30T03:26:05;101526.31;;;5.37;72.00
22241;BME280;11289;52.524;13.694;2023-04-30T03:28:31;101508.97;;;5.26;71.94
22241;BME280;11289;52.524;13.694;2023-04-30T03:30:57;101532.91;;;5.31;72.48
22241;BME280;11289;52.524;13.694;2023-04-30T03:33:24;101523.53;;;5.27;72.81
22241;BME280;11289;52.524;13.694;2023-04-30T03:35:50;101528.78;;;5.23;72.82
22241;BME280;11289;52.524;13.694;2023-04-30T03:38:16;101511.41;;;5.12;73.18
22241;BME280;11289;52.524;13.694;2023-04-30T03:40:42;101533.16;;;5.24;73.40
22241;BME280;11289;52.524;13.694;2023-04-30T03:43:08;101523.81;;;5.20;73.53
22241;BME280;11289;52.524;13.694;2023-04-30T03:45:34;101529.88;;;5.22;73.61
22241;BME280;11289;52.524;13.694;2023-04-30T03:48:01;101512.50;;;5.06;73.86
22241;BME280;11289;52.524;13.694;2023-04-30T03:50:26;101527.09;;;5.12;74.29
22241;BME280;11289;52.524;13.694;2023-04-30T03:52:52;101541.69;;;5.12;74.04
22241;BME280;11289;52.524;13.694;2023-04-30T03:55:18;101545.81;;;5.15;74.10
22241;BME280;11289;52.524;13.694;2023-04-30T03:57:44;101554.63;;;5.17;74.33
22241;BME280;11289;52.524;13.694;2023-04-30T04:00:11;101554.63;;;5.17;74.25
22241;BME280;11289;52.524;13.694;2023-04-30T04:02:38;101555.47;;;5.17;74.45
22241;BME280;11289;52.524;13.694;2023-04-30T04:05:05;101558.78;;;5.14;74.57
22241;BME280;11289;52.524;13.694;2023-04-30T04:07:31;101562.88;;;5.17;74.74
22241;BME280;11289;52.524;13.694;2023-04-30T04:09:57;101567.88;;;5.20;75.00
22241;BME280;11289;52.524;13.694;2023-04-30T04:12:23;101569.50;;;5.16;74.87
22241;BME280;11289;52.524;13.694;2023-04-30T04:14:49;101566.75;;;5.16;75.08
22241;BME280;11289;52.524;13.694;2023-04-30T04:17:15;101573.63;;;5.18;74.93
22241;BME280;11289;52.524;13.694;2023-04-30T04:19:41;101573.63;;;5.18;74.93
22241;BME280;11289;52.524;13.694;2023-04-30T04:22:07;101581.88;;;5.18;75.42
22241;BME280;11289;52.524;13.694;2023-04-30T04:24:33;101565.38;;;5.13;75.67
22241;BME280;11289;52.524;13.694;2023-04-30T04:27:00;101574.72;;;5.12;75.57
22241;BME280;11289;52.524;13.694;2023-04-30T04:29:27;101587.16;;;5.20;75.68
22241;BME280;11289;52.524;13.694;2023-04-30T04:31:54;101576.09;;;5.10;75.67
22241;BME280;11289;52.524;13.694;2023-04-30T04:34:21;101595.38;;;5.15;75.69
22241;BME280;11289;52.524;13.694;2023-04-30T04:36:47;101597.31;;;5.14;75.79
22241;BME280;11289;52.524;13.694;2023-04-30T04:39:13;101588.22;;;5.14;75.97
22241;BME280;11289;52.524;13.694;2023-04-30T04:41:39;101589.88;;;5.15;75.83
22241;BME280;11289;52.524;13.694;2023-04-30T04:44:06;101586.59;;;5.13;76.12
22241;BME280;11289;52.524;13.694;2023-04-30T04:46:33;101597.06;;;5.16;75.99
22241;BME280;11289;52.524;13.694;2023-04-30T04:48:59;101601.16;;;5.18;75.57
22241;BME280;11289;52.524;13.694;2023-04-30T04:51:25;101612.19;;;5.18;76.39
22241;BME280;11289;52.524;13.694;2023-04-30T04:53:51;101618.00;;;5.22;76.04
22241;BME280;11289;52.524;13.694;2023-04-30T04:56:17;101623.50;;;5.22;76.29
22241;BME280;11289;52.524;13.694;2023-04-30T04:58:44;101633.16;;;5.25;76.23
22241;BME280;11289;52.524;13.694;2023-04-30T05:01:10;101617.72;;;5.23;76.15
22241;BME280;11289;52.524;13.694;2023-04-30T05:03:36;101617.44;;;5.25;76.14
22241;BME280;11289;52.524;13.694;2023-04-30T05:06:02;101631.78;;;5.27;76.23
22241;BME280;11289;52.524;13.694;2023-04-30T05:08:28;101629.03;;;5.27;76.22
22241;BME280;11289;52.524;13.694;2023-04-30T05:10:54;101632.34;;;5.34;76.48
22241;BME280;11289;52.524;13.694;2023-04-30T05:13:20;101635.09;;;5.29;76.26
22241;BME280;11289;52.524;13.694;2023-04-30T05:15:50;101632.88;;;5.31;76.79
22241;BME280;11289;52.524;13.694;2023-04-30T05:18:16;101645.31;;;5.39;76.58
22241;BME280;11289;52.524;13.694;2023-04-30T05:20:42;101648.34;;;5.37;76.47
22241;BME280;11289;52.524;13.694;2023-04-30T05:23:08;101652.72;;;5.38;76.54
22241;BME280;11289;52.524;13.694;2023-04-30T05:25:34;101651.09;;;5.37;76.40
22241;BME280;11289;52.524;13.694;2023-04-30T05:28:01;101658.28;;;5.44;76.88
22241;BME280;11289;52.524;13.694;2023-04-30T05:30:28;101652.22;;;5.47;76.85
22241;BME280;11289;52.524;13.694;2023-04-30T05:32:54;101663.50;;;5.50;76.50
22241;BME280;11289;52.524;13.694;2023-04-30T05:35:21;101665.19;;;5.56;76.56
22241;BME280;11289;52.524;13.694;2023-04-30T05:37:47;101669.88;;;5.61;76.48
22241;BME280;11289;52.524;13.694;2023-04-30T05:40:13;101673.50;;;5.67;76.24
22241;BME280;11289;52.524;13.694;2023-04-30T05:42:40;101670.47;;;5.68;76.23
22241;BME280;11289;52.524;13.694;2023-04-30T05:45:09;101671.00;;;5.70;75.88
22241;BME280;11289;52.524;13.694;2023-04-30T05:47:37;101659.69;;;5.62;75.58
22241;BME280;11289;52.524;13.694;2023-04-30T05:50:03;101686.75;;;5.80;75.46
22241;BME280;11289;52.524;13.694;2023-04-30T05:52:29;101680.97;;;5.92;76.17
22241;BME280;11289;52.524;13.694;2023-04-30T05:54:55;101663.38;;;6.08;76.40
22241;BME280;11289;52.524;13.694;2023-04-30T05:57:21;101687.09;;;6.30;74.17
22241;BME280;11289;52.524;13.694;2023-04-30T05:59:47;101666.97;;;6.35;75.02
22241;BME280;11289;52.524;13.694;2023-04-30T06:02:13;101694.22;;;6.77;74.23
22241;BME280;11289;52.524;13.694;2023-04-30T06:04:39;101661.59;;;6.95;74.00
22241;BME280;11289;52.524;13.694;2023-04-30T06:07:05;101690.19;;;7.35;72.83
22241;BME280;11289;52.524;13.694;2023-04-30T06:09:31;101693.34;;;7.68;72.29
22241;BME280;11289;52.524;13.694;2023-04-30T06:11:57;101686.84;;;7.88;68.54
22241;BME280;11289;52.524;13.694;2023-04-30T06:14:23;101673.84;;;7.94;67.85
22241;BME280;11289;52.524;13.694;2023-04-30T06:16:49;101697.59;;;8.34;68.25
22241;BME280;11289;52.524;13.694;2023-04-30T06:19:15;101704.25;;;8.68;67.64
22241;BME280;11289;52.524;13.694;2023-04-30T06:21:42;101713.38;;;8.98;67.11
22241;BME280;11289;52.524;13.694;2023-04-30T06:24:10;101711.91;;;9.30;64.90
22241;BME280;11289;52.524;13.694;2023-04-30T06:26:36;101722.56;;;9.66;63.89
22241;BME280;11289;52.524;13.694;2023-04-30T06:29:02;101720.00;;;9.88;61.48
22241;BME280;11289;52.524;13.694;2023-04-30T06:31:29;101704.41;;;9.92;61.51
22241;BME280;11289;52.524;13.694;2023-04-30T06:33:55;101721.19;;;10.20;61.45
22241;BME280;11289;52.524;13.694;2023-04-30T06:36:21;101718.66;;;10.43;60.58
22241;BME280;11289;52.524;13.694;2023-04-30T06:38:47;101710.84;;;10.78;60.47
22241;BME280;11289;52.524;13.694;2023-04-30T06:41:14;101704.16;;;10.93;57.75
22241;BME280;11289;52.524;13.694;2023-04-30T06:43:42;101709.22;;;11.05;58.35
22241;BME280;11289;52.524;13.694;2023-04-30T06:46:08;101711.28;;;11.13;57.42
22241;BME280;11289;52.524;13.694;2023-04-30T06:48:34;101704.81;;;11.31;56.28
22241;BME280;11289;52.524;13.694;2023-04-30T06:51:00;101709.94;;;11.52;54.90
22241;BME280;11289;52.524;13.694;2023-04-30T06:53:26;101704.16;;;11.62;56.09
22241;BME280;11289;52.524;13.694;2023-04-30T06:55:52;101716.09;;;11.77;54.32
22241;BME280;11289;52.524;13.694;2023-04-30T06:58:18;101703.53;;;11.65;52.51
22241;BME280;11289;52.524;13.694;2023-04-30T07:00:44;101707.28;;;11.83;53.51
22241;BME280;11289;52.524;13.694;2023-04-30T07:03:10;101704.50;;;12.11;54.46
22241;BME280;11289;52.524;13.694;2023-04-30T07:05:36;101702.91;;;12.19;53.48
22241;BME280;11289;52.524;13.694;2023-04-30T07:08:03;101716.31;;;12.17;51.36
22241;BME280;11289;52.524;13.694;2023-04-30T07:10:29;101718.28;;;12.39;52.63
22241;BME280;11289;52.524;13.694;2023-04-30T07:12:56;101717.63;;;12.65;50.93
22241;BME280;11289;52.524;13.694;2023-04-30T07:15:22;101718.50;;;12.74;51.38
22241;BME280;11289;52.524;13.694;2023-04-30T07:17:48;101718.13;;;12.89;50.47
22241;BME280;11289;52.524;13.694;2023-04-30T07:20:14;101719.38;;;13.15;49.63
22241;BME280;11289;52.524;13.694;2023-04-30T07:22:41;101715.00;;;13.31;49.60
22241;BME280;11289;52.524;13.694;2023-04-30T07:25:09;101714.44;;;13.61;49.60
22241;BME280;11289;52.524;13.694;2023-04-30T07:27:36;101704.63;;;13.72;47.27
22241;BME280;11289;52.524;13.694;2023-04-30T07:30:03;101717.59;;;13.85;48.30
22241;BME280;11289;52.524;13.694;2023-04-30T07:32:29;101720.75;;;14.01;47.94
22241;BME280;11289;52.524;13.694;2023-04-30T07:34:55;101714.53;;;14.22;45.83
22241;BME280;11289;52.524;13.694;2023-04-30T07:37:21;101719.13;;;14.35;46.83
22241;BME280;11289;52.524;13.694;2023-04-30T07:39:47;101720.88;;;14.57;46.78
22241;BME280;11289;52.524;13.694;2023-04-30T07:42:13;101731.56;;;14.82;47.18
22241;BME280;11289;52.524;13.694;2023-04-30T07:44:39;101705.91;;;14.79;44.49
22241;BME280;11289;52.524;13.694;2023-04-30T07:47:06;101721.75;;;15.14;45.06
22241;BME280;11289;52.524;13.694;2023-04-30T07:49:32;101713.50;;;15.18;42.52
22241;BME280;11289;52.524;13.694;2023-04-30T07:51:58;101725.31;;;15.23;44.44
22241;BME280;11289;52.524;13.694;2023-04-30T07:54:26;101723.28;;;15.41;43.96
22241;BME280;11289;52.524;13.694;2023-04-30T07:56:52;101722.53;;;15.53;44.13
22241;BME280;11289;52.524;13.694;2023-04-30T07:59:18;101725.78;;;15.34;43.01
22241;BME280;11289;52.524;13.694;2023-04-30T08:01:46;101736.13;;;14.95;43.23
22241;BME280;11289;52.524;13.694;2023-04-30T08:04:12;101736.06;;;15.12;42.98
22241;BME280;11289;52.524;13.694;2023-04-30T08:06:38;101731.91;;;15.19;42.52
22241;BME280;11289;52.524;13.694;2023-04-30T08:09:04;101722.03;;;14.65;42.94
22241;BME280;11289;52.524;13.694;2023-04-30T08:11:30;101732.69;;;14.89;43.07
22241;BME280;11289;52.524;13.694;2023-04-30T08:13:56;101733.31;;;14.95;41.57
22241;BME280;11289;52.524;13.694;2023-04-30T08:16:22;101740.22;;;15.06;43.21
22241;BME280;11289;52.524;13.694;2023-04-30T08:18:48;101725.00;;;15.25;41.79
22241;BME280;11289;52.524;13.694;2023-04-30T08:21:15;101733.88;;;15.27;41.89
22241;BME280;11289;52.524;13.694;2023-04-30T08:23:45;101733.06;;;15.56;42.11
22241;BME280;11289;52.524;13.694;2023-04-30T08:26:11;101733.00;;;15.65;40.96
22241;BME280;11289;52.524;13.694;2023-04-30T08:28:37;101724.81;;;15.60;41.82
22241;BME280;11289;52.524;13.694;2023-04-30T08:31:03;101735.59;;;15.79;42.40
22241;BME280;11289;52.524;13.694;2023-04-30T08:33:29;101734.16;;;15.94;39.48
22241;BME280;11289;52.524;13.694;2023-04-30T08:35:56;101738.69;;;16.07;39.31
22241;BME280;11289;52.524;13.694;2023-04-30T08:38:23;101730.16;;;16.04;36.93
22241;BME280;11289;52.524;13.694;2023-04-30T08:41:11;101741.34;;;16.25;38.03
22241;BME280;11289;52.524;13.694;2023-04-30T08:43:38;101748.44;;;16.43;38.39
22241;BME280;11289;52.524;13.694;2023-04-30T08:46:05;101732.91;;;16.46;36.04
22241;BME280;11289;52.524;13.694;2023-04-30T08:48:31;101742.31;;;16.62;36.00
22241;BME280;11289;52.524;13.694;2023-04-30T08:51:01;101743.28;;;16.66;36.31
22241;BME280;11289;52.524;13.694;2023-04-30T08:53:29;101734.06;;;16.78;37.48
22241;BME280;11289;52.524;13.694;2023-04-30T08:55:56;101732.97;;;16.92;32.89
22241;BME280;11289;52.524;13.694;2023-04-30T08:58:23;101741.97;;;16.97;34.72
22241;BME280;11289;52.524;13.694;2023-04-30T09:00:49;101737.91;;;17.07;35.97
22241;BME280;11289;52.524;13.694;2023-04-30T09:03:15;101746.91;;;17.25;35.31
22241;BME280;11289;52.524;13.694;2023-04-30T09:05:41;101749.03;;;17.40;35.49
22241;BME280;11289;52.524;13.694;2023-04-30T09:08:07;101744.22;;;17.41;34.71
22241;BME280;11289;52.524;13.694;2023-04-30T09:10:34;101743.66;;;17.48;34.38
22241;BME280;11289;52.524;13.694;2023-04-30T09:13:07;101747.03;;;17.41;33.31
22241;BME280;11289;52.524;13.694;2023-04-30T09:15:35;101735.56;;;17.09;32.71
22241;BME280;11289;52.524;13.694;2023-04-30T09:18:19;101735.69;;;17.25;31.78
22241;BME280;11289;52.524;13.694;2023-04-30T09:20:57;101758.75;;;17.43;32.81
22241;BME280;11289;52.524;13.694;2023-04-30T09:23:24;101744.84;;;17.59;33.01
22241;BME280;11289;52.524;13.694;2023-04-30T09:25:50;101758.75;;;17.68;32.30
22241;BME280;11289;52.524;13.694;2023-04-30T09:28:16;101743.31;;;17.62;33.08
22241;BME280;11289;52.524;13.694;2023-04-30T09:30:43;101744.47;;;17.85;33.11
22241;BME280;11289;52.524;13.694;2023-04-30T09:33:09;101751.34;;;18.13;31.54
22241;BME280;11289;52.524;13.694;2023-04-30T09:35:37;101742.44;;;18.10;32.02
22241;BME280;11289;52.524;13.694;2023-04-30T09:38:44;101742.06;;;18.24;31.15
22241;BME280;11289;52.524;13.694;2023-04-30T09:43:46;101736.16;;;18.30;30.17
22241;BME280;11289;52.524;13.694;2023-04-30T09:46:12;101737.97;;;18.50;30.03
22241;BME280;11289;52.524;13.694;2023-04-30T09:48:43;101746.75;;;18.77;29.37
22241;BME280;11289;52.524;13.694;2023-04-30T09:51:09;101752.19;;;18.86;28.45
22241;BME280;11289;52.524;13.694;2023-04-30T09:53:41;101738.06;;;18.25;29.08
22241;BME280;11289;52.524;13.694;2023-04-30T09:56:09;101721.47;;;18.08;31.11
22241;BME280;11289;52.524;13.694;2023-04-30T09:58:36;101736.94;;;18.42;29.55
22241;BME280;11289;52.524;13.694;2023-04-30T10:01:08;101733.38;;;18.58;29.05
22241;BME280;11289;52.524;13.694;2023-04-30T10:03:38;101710.78;;;18.70;30.67
22241;BME280;11289;52.524;13.694;2023-04-30T10:06:06;101728.75;;;19.26;29.20
22241;BME280;11289;52.524;13.694;2023-04-30T10:08:39;101735.09;;;19.39;28.93
22241;BME280;11289;52.524;13.694;2023-04-30T10:11:09;101718.47;;;19.34;28.54
22241;BME280;11289;52.524;13.694;2023-04-30T10:14:02;101727.09;;;19.41;28.84
22241;BME280;11289;52.524;13.694;2023-04-30T10:16:50;101730.44;;;19.62;27.60
22241;BME280;11289;52.524;13.694;2023-04-30T10:19:22;101719.88;;;19.75;28.51
22241;BME280;11289;52.524;13.694;2023-04-30T10:21:49;101716.13;;;19.87;28.21
22241;BME280;11289;52.524;13.694;2023-04-30T10:24:18;101713.09;;;18.96;26.96
22241;BME280;11289;52.524;13.694;2023-04-30T10:26:45;101717.56;;;18.98;29.38
22241;BME280;11289;52.524;13.694;2023-04-30T10:29:12;101719.09;;;19.11;27.46
22241;BME280;11289;52.524;13.694;2023-04-30T10:31:40;101715.59;;;19.14;28.82
22241;BME280;11289;52.524;13.694;2023-04-30T10:36:50;101706.59;;;19.76;27.54
22241;BME280;11289;52.524;13.694;2023-04-30T10:39:23;101711.59;;;19.82;29.04
22241;BME280;11289;52.524;13.694;2023-04-30T10:42:03;101705.56;;;20.00;28.42
22241;BME280;11289;52.524;13.694;2023-04-30T10:44:35;101711.47;;;19.95;28.28
22241;BME280;11289;52.524;13.694;2023-04-30T10:47:03;101701.16;;;20.22;27.74
22241;BME280;11289;52.524;13.694;2023-04-30T10:49:29;101696.44;;;20.26;27.90
22241;BME280;11289;52.524;13.694;2023-04-30T10:52:01;101706.34;;;20.40;28.45
22241;BME280;11289;52.524;13.694;2023-04-30T10:54:30;101697.69;;;20.29;27.29
22241;BME280;11289;52.524;13.694;2023-04-30T10:57:12;101705.75;;;20.50;26.44
22241;BME280;11289;52.524;13.694;2023-04-30T11:02:46;101705.75;;;20.50;26.10
22241;BME280;11289;52.524;13.694;2023-04-30T11:05:14;101687.06;;;20.22;26.18
22241;BME280;11289;52.524;13.694;2023-04-30T11:07:49;101689.59;;;19.88;26.24
22241;BME280;11289;52.524;13.694;2023-04-30T11:10:19;101686.41;;;20.09;27.76
22241;BME280;11289;52.524;13.694;2023-04-30T11:12:50;101697.22;;;20.27;27.54
22241;BME280;11289;52.524;13.694;2023-04-30T11:15:19;101690.63;;;19.99;26.19
22241;BME280;11289;52.524;13.694;2023-04-30T11:17:48;101694.09;;;19.57;28.86
22241;BME280;11289;52.524;13.694;2023-04-30T11:20:19;101693.22;;;19.21;28.16
22241;BME280;11289;52.524;13.694;2023-04-30T11:22:46;101684.63;;;19.65;29.02
22241;BME280;11289;52.524;13.694;2023-04-30T11:25:13;101680.84;;;20.13;28.59
22241;BME280;11289;52.524;13.694;2023-04-30T11:27:44;101686.47;;;20.52;29.21
22241;BME280;11289;52.524;13.694;2023-04-30T11:30:16;101687.50;;;20.86;27.04
22241;BME280;11289;52.524;13.694;2023-04-30T11:32:45;101678.91;;;21.02;27.12
22241;BME280;11289;52.524;13.694;2023-04-30T11:35:16;101672.03;;;20.77;26.06
22241;BME280;11289;52.524;13.694;2023-04-30T11:37:43;101673.25;;;20.37;25.60
22241;BME280;11289;52.524;13.694;2023-04-30T11:40:11;101680.63;;;19.82;27.46
22241;BME280;11289;52.524;13.694;2023-04-30T11:42:39;101671.56;;;19.93;28.42
22241;BME280;11289;52.524;13.694;2023-04-30T11:45:14;101680.84;;;20.32;28.39
22241;BME280;11289;52.524;13.694;2023-04-30T11:47:47;101679.00;;;20.63;27.66
22241;BME280;11289;52.524;13.694;2023-04-30T11:50:18;101679.13;;;20.90;27.88
22241;BME280;11289;52.524;13.694;2023-04-30T11:52:51;101685.78;;;21.28;27.07
22241;BME280;11289;52.524;13.694;2023-04-30T11:55:19;101671.53;;;21.48;27.28
22241;BME280;11289;52.524;13.694;2023-04-30T11:57:47;101681.13;;;21.66;25.72
22241;BME280;11289;52.524;13.694;2023-04-30T12:00:19;101680.09;;;21.78;24.19
22241;BME280;11289;52.524;13.694;2023-04-30T12:02:48;101666.97;;;21.13;25.80
22241;BME280;11289;52.524;13.694;2023-04-30T12:05:16;101668.44;;;21.03;26.47
22241;BME280;11289;52.524;13.694;2023-04-30T12:07:47;101676.75;;;21.42;26.09
22241;BME280;11289;52.524;13.694;2023-04-30T12:10:13;101668.19;;;21.65;26.52
22241;BME280;11289;52.524;13.694;2023-04-30T12:12:42;101664.19;;;21.66;25.80
22241;BME280;11289;52.524;13.694;2023-04-30T12:15:13;101671.88;;;21.69;25.57
22241;BME280;11289;52.524;13.694;2023-04-30T12:17:39;101673.31;;;21.29;26.86
22241;BME280;11289;52.524;13.694;2023-04-30T12:20:07;101678.41;;;21.47;25.86
22241;BME280;11289;52.524;13.694;2023-04-30T12:22:33;101667.94;;;21.74;25.69
22241;BME280;11289;52.524;13.694;2023-04-30T12:25:05;101682.25;;;21.88;23.92
22241;BME280;11289;52.524;13.694;2023-04-30T12:27:32;101673.34;;;21.06;25.11
22241;BME280;11289;52.524;13.694;2023-04-30T12:30:05;101659.34;;;21.13;25.37
22241;BME280;11289;52.524;13.694;2023-04-30T12:32:39;101670.16;;;20.84;25.72
22241;BME280;11289;52.524;13.694;2023-04-30T12:35:06;101660.84;;;20.84;24.87
22241;BME280;11289;52.524;13.694;2023-04-30T12:37:33;101659.84;;;20.10;26.59
22241;BME280;11289;52.524;13.694;2023-04-30T12:39:59;101656.06;;;20.03;26.63
22241;BME280;11289;52.524;13.694;2023-04-30T12:42:31;101654.59;;;20.09;26.31
22241;BME280;11289;52.524;13.694;2023-04-30T12:44:59;101651.69;;;20.25;26.20
22241;BME280;11289;52.524;13.694;2023-04-30T12:47:25;101627.25;;;20.75;26.16
22241;BME280;11289;52.524;13.694;2023-04-30T12:49:51;101624.34;;;21.21;25.13
22241;BME280;11289;52.524;13.694;2023-04-30T12:52:23;101648.75;;;21.60;23.72
22241;BME280;11289;52.524;13.694;2023-04-30T12:54:49;101646.81;;;21.64;22.24
22241;BME280;11289;52.524;13.694;2023-04-30T12:57:15;101646.25;;;21.55;23.29
22241;BME280;11289;52.524;13.694;2023-04-30T12:59:58;101641.44;;;21.05;23.91
22241;BME280;11289;52.524;13.694;2023-04-30T13:02:26;101638.75;;;21.13;23.37
22241;BME280;11289;52.524;13.694;2023-04-30T13:04:53;101637.22;;;21.46;24.36
22241;BME280;11289;52.524;13.694;2023-04-30T13:07:19;101639.72;;;21.78;23.95
22241;BME280;11289;52.524;13.694;2023-04-30T13:09:45;101634.09;;;21.81;23.89